createdAt,value
2023-02-03T00:13:05.235Z,1023.88
2023-02-03T00:43:05.267Z,1023.93
2023-02-03T01:13:05.229Z,1023.79
2023-02-03T01:43:05.248Z,1023.84
2023-02-03T02:13:05.255Z,1023.29
2023-02-03T02:43:05.251Z,1023.18
2023-02-03T03:13:05.269Z,1023.29
2023-02-03T03:43:05.262Z,1023.56
2023-02-03T04:13:05.280Z,1023.38
2023-02-03T04:43:05.275Z,1022.91
2023-02-03T05:13:05.281Z,1022.94
2023-02-03T05:43:05.283Z,1023.5
2023-02-03T06:13:05.279Z,1022.77
2023-02-03T06:43:05.286Z,1022.33
2023-02-03T07:13:05.283Z,1022.49
2023-02-03T07:43:05.302Z,1022.64
2023-02-03T08:27:59.890Z,1022.84
2023-02-03T08:57:59.792Z,1022.9
2023-02-03T09:27:59.841Z,1022.54
2023-02-03T09:57:59.780Z,1021.81
2023-02-03T10:27:59.944Z,1021.79
2023-02-03T10:57:59.796Z,1021.51
2023-02-03T11:27:59.824Z,1020.75
2023-02-03T11:57:59.804Z,1020.45
2023-02-03T12:27:59.896Z,1020.4
2023-02-03T12:57:59.832Z,1020.33
2023-02-03T13:27:59.877Z,1019.8
2023-02-03T13:57:59.816Z,1019.32
2023-02-03T14:27:59.895Z,1019.71
2023-02-03T14:57:59.818Z,1019.51
2023-02-03T15:27:59.840Z,1019.52
2023-02-03T15:57:59.831Z,1019.82
2023-02-03T16:27:59.910Z,1019.21
2023-02-03T16:57:59.858Z,1019.77
2023-02-03T17:27:59.928Z,1019.87
2023-02-03T17:57:59.872Z,1019.98
2023-02-03T18:27:59.895Z,1020.36
2023-02-03T18:57:59.848Z,1020.67
2023-02-03T19:27:59.909Z,1021.05
2023-02-03T19:57:59.879Z,1021.7
2023-02-03T20:27:59.960Z,1022.13
2023-02-03T20:57:59.880Z,1022.55
2023-02-03T21:27:59.940Z,1022.71
2023-02-03T21:57:59.904Z,1023.04
2023-02-03T22:27:59.965Z,1023.11
2023-02-03T22:57:59.904Z,1023.5
2023-02-03T23:27:59.911Z,1023.7
2023-02-03T23:57:59.902Z,1024.35
